sensor_id;sensor_type;location;lat;lon;timestamp;pressure;altitude;pressure_sealevel;temperature;humidity
45888;BME280;31595;51.418;7.572;2022-10-22T00:00:32;99732.97;;;14.44;86.07
45888;BME280;31595;51.418;7.572;2022-10-22T00:02:59;99730.91;;;14.41;86.60
45888;BME280;31595;51.418;7.572;2022-10-22T00:05:27;99732.50;;;14.42;87.00
45888;BME280;31595;51.418;7.572;2022-10-22T00:07:54;99739.31;;;14.41;85.96
45888;BME280;31595;51.418;7.572;2022-10-22T00:10:23;99740.47;;;14.40;86.31
45888;BME280;31595;51.418;7.572;2022-10-22T00:12:50;99746.06;;;14.40;86.83
45888;BME280;31595;51.418;7.572;2022-10-22T00:15:17;99749.59;;;14.37;86.30
45888;BME280;31595;51.418;7.572;2022-10-22T00:17:44;99750.41;;;14.37;86.94
45888;BME280;31595;51.418;7.572;2022-10-22T00:20:14;99741.19;;;14.37;86.17
45888;BME280;31595;51.418;7.572;2022-10-22T00:22:42;99741.88;;;14.34;87.12
45888;BME280;31595;51.418;7.572;2022-10-22T00:25:09;99746.56;;;14.30;85.94
45888;BME280;31595;51.418;7.572;2022-10-22T00:27:38;99752.19;;;14.30;86.77
45888;BME280;31595;51.418;7.572;2022-10-22T00:30:06;99746.56;;;14.30;86.81
45888;BME280;31595;51.418;7.572;2022-10-22T00:32:33;99747.31;;;14.27;86.31
45888;BME280;31595;51.418;7.572;2022-10-22T00:35:01;99751.25;;;14.26;85.95
45888;BME280;31595;51.418;7.572;2022-10-22T00:37:28;99752.81;;;14.23;85.77
45888;BME280;31595;51.418;7.572;2022-10-22T00:39:56;99756.78;;;14.22;85.96
45888;BME280;31595;51.418;7.572;2022-10-22T00:42:26;99753.19;;;14.21;86.51
45888;BME280;31595;51.418;7.572;2022-10-22T00:45:04;99761.59;;;14.21;86.09
45888;BME280;31595;51.418;7.572;2022-10-22T00:47:35;99756.69;;;14.18;86.12
45888;BME280;31595;51.418;7.572;2022-10-22T00:50:04;99749.91;;;14.19;86.11
45888;BME280;31595;51.418;7.572;2022-10-22T00:52:34;99750.97;;;14.15;87.35
45888;BME280;31595;51.418;7.572;2022-10-22T00:55:02;99755.06;;;14.17;86.97
45888;BME280;31595;51.418;7.572;2022-10-22T00:57:30;99761.94;;;14.20;86.99
45888;BME280;31595;51.418;7.572;2022-10-22T00:59:57;99757.47;;;14.19;86.94
45888;BME280;31595;51.418;7.572;2022-10-22T01:02:26;99759.59;;;14.22;86.98
45888;BME280;31595;51.418;7.572;2022-10-22T01:04:53;99754.34;;;14.20;86.67
45888;BME280;31595;51.418;7.572;2022-10-22T01:07:21;99746.19;;;14.15;85.96
45888;BME280;31595;51.418;7.572;2022-10-22T01:09:58;99743.94;;;14.21;87.37
45888;BME280;31595;51.418;7.572;2022-10-22T01:12:35;99742.31;;;14.20;87.27
45888;BME280;31595;51.418;7.572;2022-10-22T01:15:17;99747.13;;;14.19;86.80
45888;BME280;31595;51.418;7.572;2022-10-22T01:17:54;99754.22;;;14.17;86.76
45888;BME280;31595;51.418;7.572;2022-10-22T01:20:43;99742.94;;;14.13;87.10
45888;BME280;31595;51.418;7.572;2022-10-22T01:23:24;99738.50;;;14.12;87.29
45888;BME280;31595;51.418;7.572;2022-10-22T01:25:58;99733.63;;;14.09;87.34
45888;BME280;31595;51.418;7.572;2022-10-22T01:28:47;99736.31;;;14.06;86.68
45888;BME280;31595;51.418;7.572;2022-10-22T01:31:17;99737.84;;;14.03;87.00
45888;BME280;31595;51.418;7.572;2022-10-22T01:33:48;99733.06;;;14.04;87.44
45888;BME280;31595;51.418;7.572;2022-10-22T01:36:17;99723.47;;;14.05;86.45
45888;BME280;31595;51.418;7.572;2022-10-22T01:38:45;99735.03;;;14.03;86.24
45888;BME280;31595;51.418;7.572;2022-10-22T01:41:13;99727.44;;;14.04;86.41
45888;BME280;31595;51.418;7.572;2022-10-22T01:43:42;99714.97;;;14.01;86.40
45888;BME280;31595;51.418;7.572;2022-10-22T01:46:10;99715.69;;;13.98;86.21
45888;BME280;31595;51.418;7.572;2022-10-22T01:48:47;99716.88;;;13.97;87.16
45888;BME280;31595;51.418;7.572;2022-10-22T01:51:27;99706.34;;;13.94;87.46
45888;BME280;31595;51.418;7.572;2022-10-22T01:54:00;99707.91;;;13.91;87.12
45888;BME280;31595;51.418;7.572;2022-10-22T01:56:37;99703.81;;;13.89;87.30
45888;BME280;31595;51.418;7.572;2022-10-22T01:59:14;99710.13;;;13.86;87.35
45888;BME280;31595;51.418;7.572;2022-10-22T02:01:48;99694.16;;;13.86;86.89
45888;BME280;31595;51.418;7.572;2022-10-22T02:04:22;99697.66;;;13.83;87.08
45888;BME280;31595;51.418;7.572;2022-10-22T02:06:53;99696.38;;;13.80;86.47
45888;BME280;31595;51.418;7.572;2022-10-22T02:09:25;99688.72;;;13.77;86.01
45888;BME280;31595;51.418;7.572;2022-10-22T02:11:54;99691.50;;;13.77;86.04
45888;BME280;31595;51.418;7.572;2022-10-22T02:14:26;99695.81;;;13.75;86.56
45888;BME280;31595;51.418;7.572;2022-10-22T02:16:56;99695.72;;;13.71;85.95
45888;BME280;31595;51.418;7.572;2022-10-22T02:19:27;99701.69;;;13.70;86.41
45888;BME280;31595;51.418;7.572;2022-10-22T02:21:58;99699.34;;;13.72;86.23
45888;BME280;31595;51.418;7.572;2022-10-22T02:24:26;99706.47;;;13.69;87.06
45888;BME280;31595;51.418;7.572;2022-10-22T02:27:00;99702.38;;;13.67;87.17
45888;BME280;31595;51.418;7.572;2022-10-22T02:29:36;99715.91;;;13.65;86.78
45888;BME280;31595;51.418;7.572;2022-10-22T02:32:07;99712.75;;;13.66;87.01
45888;BME280;31595;51.418;7.572;2022-10-22T02:34:35;99703.91;;;13.64;86.49
45888;BME280;31595;51.418;7.572;2022-10-22T02:37:03;99715.09;;;13.64;87.38
45888;BME280;31595;51.418;7.572;2022-10-22T02:39:32;99709.03;;;13.62;87.08
45888;BME280;31595;51.418;7.572;2022-10-22T02:42:01;99707.41;;;13.61;86.58
45888;BME280;31595;51.418;7.572;2022-10-22T02:44:28;99721.75;;;13.59;86.90
45888;BME280;31595;51.418;7.572;2022-10-22T02:46:57;99722.09;;;13.58;87.16
45888;BME280;31595;51.418;7.572;2022-10-22T02:49:25;99723.63;;;13.55;86.77
45888;BME280;31595;51.418;7.572;2022-10-22T02:51:52;99726.78;;;13.54;86.75
45888;BME280;31595;51.418;7.572;2022-10-22T02:54:19;99711.16;;;13.53;87.26
45888;BME280;31595;51.418;7.572;2022-10-22T02:56:47;99714.78;;;13.53;87.17
45888;BME280;31595;51.418;7.572;2022-10-22T02:59:14;99724.34;;;13.52;86.23
45888;BME280;31595;51.418;7.572;2022-10-22T03:01:41;99723.41;;;13.48;86.12
45888;BME280;31595;51.418;7.572;2022-10-22T03:04:10;99721.78;;;13.47;86.21
45888;BME280;31595;51.418;7.572;2022-10-22T03:06:37;99712.91;;;13.45;86.01
45888;BME280;31595;51.418;7.572;2022-10-22T03:09:04;99723.19;;;13.41;86.51
45888;BME280;31595;51.418;7.572;2022-10-22T03:11:31;99722.38;;;13.40;86.58
45888;BME280;31595;51.418;7.572;2022-10-22T03:13:58;99725.50;;;13.39;85.68
45888;BME280;31595;51.418;7.572;2022-10-22T03:16:25;99730.66;;;13.37;86.58
45888;BME280;31595;51.418;7.572;2022-10-22T03:18:53;99737.41;;;13.36;86.61
45888;BME280;31595;51.418;7.572;2022-10-22T03:21:26;99732.97;;;13.35;86.49
45888;BME280;31595;51.418;7.572;2022-10-22T03:23:55;99736.50;;;13.32;86.54
45888;BME280;31595;51.418;7.572;2022-10-22T03:26:24;99739.63;;;13.30;85.96
45888;BME280;31595;51.418;7.572;2022-10-22T03:28:52;99747.53;;;13.28;86.83
45888;BME280;31595;51.418;7.572;2022-10-22T03:31:20;99733.88;;;13.27;86.76
45888;BME280;31595;51.418;7.572;2022-10-22T03:33:47;99727.47;;;13.26;86.91
45888;BME280;31595;51.418;7.572;2022-10-22T03:36:17;99732.16;;;13.22;86.19
45888;BME280;31595;51.418;7.572;2022-10-22T03:38:50;99754.53;;;13.22;87.21
45888;BME280;31595;51.418;7.572;2022-10-22T03:41:17;99746.72;;;13.15;86.51
45888;BME280;31595;51.418;7.572;2022-10-22T03:43:45;99736.59;;;13.11;87.09
45888;BME280;31595;51.418;7.572;2022-10-22T03:46:16;99733.31;;;13.09;86.29
45888;BME280;31595;51.418;7.572;2022-10-22T03:48:43;99737.28;;;13.08;87.62
45888;BME280;31595;51.418;7.572;2022-10-22T03:51:10;99734.38;;;13.04;86.31
45888;BME280;31595;51.418;7.572;2022-10-22T03:53:38;99745.09;;;13.02;87.16
45888;BME280;31595;51.418;7.572;2022-10-22T03:56:11;99746.59;;;12.99;87.22
45888;BME280;31595;51.418;7.572;2022-10-22T03:58:40;99751.38;;;12.99;86.17
45888;BME280;31595;51.418;7.572;2022-10-22T04:01:08;99750.44;;;12.95;86.76
45888;BME280;31595;51.418;7.572;2022-10-22T04:03:36;99745.88;;;12.90;86.59
45888;BME280;31595;51.418;7.572;2022-10-22T04:06:05;99748.22;;;12.88;86.36
45888;BME280;31595;51.418;7.572;2022-10-22T04:08:33;99752.53;;;12.86;86.69
45888;BME280;31595;51.418;7.572;2022-10-22T04:11:01;99758.78;;;12.83;86.15
45888;BME280;31595;51.418;7.572;2022-10-22T04:13:30;99765.91;;;12.80;87.21
45888;BME280;31595;51.418;7.572;2022-10-22T04:16:05;99769.03;;;12.78;87.34
45888;BME280;31595;51.418;7.572;2022-10-22T04:18:33;99764.97;;;12.76;86.42
45888;BME280;31595;51.418;7.572;2022-10-22T04:21:00;99763.34;;;12.75;87.40
45888;BME280;31595;51.418;7.572;2022-10-22T04:23:28;99766.47;;;12.73;86.94
45888;BME280;31595;51.418;7.572;2022-10-22T04:25:57;99768.47;;;12.73;87.03
45888;BME280;31595;51.418;7.572;2022-10-22T04:28:24;99772.88;;;12.74;87.34
45888;BME280;31595;51.418;7.572;2022-10-22T04:30:53;99769.75;;;12.75;88.33
45888;BME280;31595;51.418;7.572;2022-10-22T04:33:21;99767.41;;;12.77;88.11
45888;BME280;31595;51.418;7.572;2022-10-22T04:35:48;99772.31;;;12.80;88.13
45888;BME280;31595;51.418;7.572;2022-10-22T04:38:15;99775.56;;;12.83;87.65
45888;BME280;31595;51.418;7.572;2022-10-22T04:40:42;99777.81;;;12.89;88.46
45888;BME280;31595;51.418;7.572;2022-10-22T04:43:10;99781.50;;;12.93;89.33
45888;BME280;31595;51.418;7.572;2022-10-22T04:45:37;99778.50;;;12.98;89.25
45888;BME280;31595;51.418;7.572;2022-10-22T04:48:06;99768.03;;;13.08;89.19
45888;BME280;31595;51.418;7.572;2022-10-22T04:50:33;99770.03;;;13.19;89.21
45888;BME280;31595;51.418;7.572;2022-10-22T04:53:01;99776.34;;;13.29;90.63
45888;BME280;31595;51.418;7.572;2022-10-22T04:55:28;99781.34;;;13.35;90.45
45888;BME280;31595;51.418;7.572;2022-10-22T04:57:55;99780.78;;;13.42;89.48
45888;BME280;31595;51.418;7.572;2022-10-22T05:00:22;99773.78;;;13.48;89.32
45888;BME280;31595;51.418;7.572;2022-10-22T05:02:50;99781.47;;;13.51;89.23
45888;BME280;31595;51.418;7.572;2022-10-22T05:05:18;99777.59;;;13.56;90.40
45888;BME280;31595;51.418;7.572;2022-10-22T05:07:46;99778.88;;;13.58;89.58
45888;BME280;31595;51.418;7.572;2022-10-22T05:10:13;99784.13;;;13.60;89.24
45888;BME280;31595;51.418;7.572;2022-10-22T05:12:40;99783.78;;;13.62;88.58
45888;BME280;31595;51.418;7.572;2022-10-22T05:15:08;99780.50;;;13.59;88.62
45888;BME280;31595;51.418;7.572;2022-10-22T05:17:35;99785.41;;;13.63;88.58
45888;BME280;31595;51.418;7.572;2022-10-22T05:20:03;99787.84;;;13.64;89.24
45888;BME280;31595;51.418;7.572;2022-10-22T05:22:33;99787.16;;;13.67;91.19
45888;BME280;31595;51.418;7.572;2022-10-22T05:25:00;99793.69;;;13.71;91.33
45888;BME280;31595;51.418;7.572;2022-10-22T05:27:28;99786.69;;;13.77;92.01
45888;BME280;31595;51.418;7.572;2022-10-22T05:29:55;99790.84;;;13.84;90.89
45888;BME280;31595;51.418;7.572;2022-10-22T05:32:22;99794.56;;;13.88;91.08
45888;BME280;31595;51.418;7.572;2022-10-22T05:34:49;99794.34;;;13.93;91.24
45888;BME280;31595;51.418;7.572;2022-10-22T05:37:17;99796.06;;;13.97;91.42
45888;BME280;31595;51.418;7.572;2022-10-22T05:39:46;99791.75;;;14.00;91.78
45888;BME280;31595;51.418;7.572;2022-10-22T05:42:13;99800.25;;;14.04;91.58
45888;BME280;31595;51.418;7.572;2022-10-22T05:44:40;99811.56;;;14.07;91.52
45888;BME280;31595;51.418;7.572;2022-10-22T05:47:07;99807.25;;;14.10;91.42
45888;BME280;31595;51.418;7.572;2022-10-22T05:49:35;99811.06;;;14.17;92.21
45888;BME280;31595;51.418;7.572;2022-10-22T05:52:03;99817.34;;;14.27;93.57
45888;BME280;31595;51.418;7.572;2022-10-22T05:54:30;99827.13;;;14.33;93.92
45888;BME280;31595;51.418;7.572;2022-10-22T05:56:59;99827.78;;;14.42;92.98
45888;BME280;31595;51.418;7.572;2022-10-22T05:59:26;99839.28;;;14.53;94.12
45888;BME280;31595;51.418;7.572;2022-10-22T06:01:53;99840.81;;;14.63;94.09
45888;BME280;31595;51.418;7.572;2022-10-22T06:04:21;99833.16;;;14.75;94.05
45888;BME280;31595;51.418;7.572;2022-10-22T06:06:50;99823.41;;;14.85;94.28
45888;BME280;31595;51.418;7.572;2022-10-22T06:09:21;99829.66;;;14.94;93.16
45888;BME280;31595;51.418;7.572;2022-10-22T06:11:49;99829.41;;;14.99;93.62
45888;BME280;31595;51.418;7.572;2022-10-22T06:14:19;99840.69;;;15.03;92.33
45888;BME280;31595;51.418;7.572;2022-10-22T06:16:47;99847.22;;;15.07;91.80
45888;BME280;31595;51.418;7.572;2022-10-22T06:19:16;99843.31;;;15.12;91.66
45888;BME280;31595;51.418;7.572;2022-10-22T06:21:44;99848.13;;;15.11;90.58
45888;BME280;31595;51.418;7.572;2022-10-22T06:24:12;99845.31;;;15.11;90.52
45888;BME280;31595;51.418;7.572;2022-10-22T06:26:39;99856.91;;;15.10;91.46
45888;BME280;31595;51.418;7.572;2022-10-22T06:29:07;99856.66;;;15.15;91.08
45888;BME280;31595;51.418;7.572;2022-10-22T06:31:36;99863.53;;;15.17;91.62
45888;BME280;31595;51.418;7.572;2022-10-22T06:34:04;99856.56;;;15.27;91.66
45888;BME280;31595;51.418;7.572;2022-10-22T06:36:31;99866.59;;;15.28;91.13
45888;BME280;31595;51.418;7.572;2022-10-22T06:38:59;99872.94;;;15.41;90.25
45888;BME280;31595;51.418;7.572;2022-10-22T06:41:26;99866.59;;;15.60;90.25
45888;BME280;31595;51.418;7.572;2022-10-22T06:43:53;99865.56;;;16.35;88.68
45888;BME280;31595;51.418;7.572;2022-10-22T06:46:23;99867.09;;;17.11;86.02
45888;BME280;31595;51.418;7.572;2022-10-22T06:48:55;99870.06;;;17.87;80.83
45888;BME280;31595;51.418;7.572;2022-10-22T06:51:24;99871.78;;;18.52;77.86
45888;BME280;31595;51.418;7.572;2022-10-22T06:53:52;99879.25;;;18.41;75.67
45888;BME280;31595;51.418;7.572;2022-10-22T06:56:22;99877.91;;;18.61;75.20
45888;BME280;31595;51.418;7.572;2022-10-22T06:58:51;99881.88;;;18.87;74.25
45888;BME280;31595;51.418;7.572;2022-10-22T07:01:20;99891.41;;;19.46;71.38
45888;BME280;31595;51.418;7.572;2022-10-22T07:03:49;99896.56;;;19.82;69.07
45888;BME280;31595;51.418;7.572;2022-10-22T07:06:19;99904.75;;;19.98;68.54
45888;BME280;31595;51.418;7.572;2022-10-22T07:08:47;99908.81;;;20.63;66.94
45888;BME280;31595;51.418;7.572;2022-10-22T07:11:16;99901.44;;;21.53;65.98
45888;BME280;31595;51.418;7.572;2022-10-22T07:13:46;99919.25;;;21.64;62.10
45888;BME280;31595;51.418;7.572;2022-10-22T07:16:14;99915.16;;;22.44;60.75
45888;BME280;31595;51.418;7.572;2022-10-22T07:18:42;99919.25;;;22.18;59.66
45888;BME280;31595;51.418;7.572;2022-10-22T07:21:11;99921.28;;;22.18;61.60
45888;BME280;31595;51.418;7.572;2022-10-22T07:23:40;99923.31;;;21.60;60.21
45888;BME280;31595;51.418;7.572;2022-10-22T07:26:07;99931.38;;;22.51;59.78
45888;BME280;31595;51.418;7.572;2022-10-22T07:28:36;99929.53;;;23.15;55.74
45888;BME280;31595;51.418;7.572;2022-10-22T07:31:06;99935.91;;;23.37;55.21
45888;BME280;31595;51.418;7.572;2022-10-22T07:33:34;99930.28;;;24.34;54.83
45888;BME280;31595;51.418;7.572;2022-10-22T07:36:06;99933.44;;;24.43;51.89
45888;BME280;31595;51.418;7.572;2022-10-22T07:38:34;99937.41;;;24.91;50.64
45888;BME280;31595;51.418;7.572;2022-10-22T07:41:03;99931.31;;;25.20;50.59
45888;BME280;31595;51.418;7.572;2022-10-22T07:43:30;99940.63;;;25.82;48.68
45888;BME280;31595;51.418;7.572;2022-10-22T07:45:58;99952.78;;;25.86;46.73
45888;BME280;31595;51.418;7.572;2022-10-22T07:48:27;99948.06;;;24.49;52.85
45888;BME280;31595;51.418;7.572;2022-10-22T07:50:55;99937.00;;;23.57;55.83
45888;BME280;31595;51.418;7.572;2022-10-22T07:53:23;99954.03;;;22.65;55.56
45888;BME280;31595;51.418;7.572;2022-10-22T07:55:50;99949.25;;;21.91;56.64
45888;BME280;31595;51.418;7.572;2022-10-22T07:58:20;99966.59;;;21.42;58.42
45888;BME280;31595;51.418;7.572;2022-10-22T08:00:48;99967.06;;;21.95;56.92
45888;BME280;31595;51.418;7.572;2022-10-22T08:03:16;99968.31;;;24.13;54.33
45888;BME280;31595;51.418;7.572;2022-10-22T08:05:44;99963.56;;;25.13;50.83
45888;BME280;31595;51.418;7.572;2022-10-22T08:08:12;99962.47;;;25.96;46.61
45888;BME280;31595;51.418;7.572;2022-10-22T08:10:40;99953.66;;;26.57;47.07
45888;BME280;31595;51.418;7.572;2022-10-22T08:13:07;99963.34;;;27.96;43.39
45888;BME280;31595;51.418;7.572;2022-10-22T08:15:36;99962.16;;;28.43;43.74
45888;BME280;31595;51.418;7.572;2022-10-22T08:18:04;99968.38;;;29.42;39.67
45888;BME280;31595;51.418;7.572;2022-10-22T08:20:31;99961.91;;;28.21;40.91
45888;BME280;31595;51.418;7.572;2022-10-22T08:22:58;99963.78;;;28.60;42.22
45888;BME280;31595;51.418;7.572;2022-10-22T08:25:26;99972.88;;;29.68;39.03
45888;BME280;31595;51.418;7.572;2022-10-22T08:27:53;99968.91;;;29.91;37.73
45888;BME280;31595;51.418;7.572;2022-10-22T08:30:21;99980.03;;;29.89;39.88
45888;BME280;31595;51.418;7.572;2022-10-22T08:32:50;99975.69;;;29.17;38.19
45888;BME280;31595;51.418;7.572;2022-10-22T08:35:18;99978.94;;;27.19;40.90
45888;BME280;31595;51.418;7.572;2022-10-22T08:37:45;100001.13;;;26.00;44.04
45888;BME280;31595;51.418;7.572;2022-10-22T08:40:20;99996.38;;;25.59;47.18
45888;BME280;31595;51.418;7.572;2022-10-22T08:46:03;99996.22;;;23.69;49.82
45888;BME280;31595;51.418;7.572;2022-10-22T08:48:42;100008.75;;;22.91;50.56
45888;BME280;31595;51.418;7.572;2022-10-22T08:51:14;100008.81;;;22.12;53.19
45888;BME280;31595;51.418;7.572;2022-10-22T08:53:52;100022.38;;;21.31;53.60
45888;BME280;31595;51.418;7.572;2022-10-22T08:56:23;100014.19;;;21.04;58.98
45888;BME280;31595;51.418;7.572;2022-10-22T08:58:55;100027.19;;;20.54;59.03
45888;BME280;31595;51.418;7.572;2022-10-22T09:01:32;100031.25;;;20.08;58.24
45888;BME280;31595;51.418;7.572;2022-10-22T09:04:07;100033.31;;;19.70;59.52
45888;BME280;31595;51.418;7.572;2022-10-22T09:06:39;100032.22;;;19.82;59.92
45888;BME280;31595;51.418;7.572;2022-10-22T09:09:10;100032.69;;;19.54;61.12
45888;BME280;31595;51.418;7.572;2022-10-22T09:11:44;100044.94;;;19.31;60.74
45888;BME280;31595;51.418;7.572;2022-10-22T09:14:15;100041.47;;;19.11;63.11
45888;BME280;31595;51.418;7.572;2022-10-22T09:17:00;100039.31;;;18.74;62.89
45888;BME280;31595;51.418;7.572;2022-10-22T09:19:36;100053.22;;;18.86;64.54
45888;BME280;31595;51.418;7.572;2022-10-22T09:22:16;100043.50;;;18.84;63.66
45888;BME280;31595;51.418;7.572;2022-10-22T09:24:52;100045.91;;;18.82;65.82
45888;BME280;31595;51.418;7.572;2022-10-22T09:27:26;100046.09;;;18.70;66.33
45888;BME280;31595;51.418;7.572;2022-10-22T09:29:54;100056.78;;;18.57;65.01
45888;BME280;31595;51.418;7.572;2022-10-22T09:32:21;100059.72;;;18.41;65.39
45888;BME280;31595;51.418;7.572;2022-10-22T09:34:54;100057.16;;;18.55;66.21
45888;BME280;31595;51.418;7.572;2022-10-22T09:37:25;100064.56;;;18.40;65.81
45888;BME280;31595;51.418;7.572;2022-10-22T09:39:54;100064.41;;;18.30;66.97
45888;BME280;31595;51.418;7.572;2022-10-22T09:42:22;100070.03;;;18.30;65.74
45888;BME280;31595;51.418;7.572;2022-10-22T09:44:52;100078.94;;;18.32;67.53
45888;BME280;31595;51.418;7.572;2022-10-22T09:47:33;100077.34;;;18.11;66.56
45888;BME280;31595;51.418;7.572;2022-10-22T09:50:10;100076.91;;;18.09;67.19
45888;BME280;31595;51.418;7.572;2022-10-22T09:52:45;100086.94;;;18.07;68.43
45888;BME280;31595;51.418;7.572;2022-10-22T09:55:23;100082.16;;;17.88;67.96
45888;BME280;31595;51.418;7.572;2022-10-22T09:57:54;100088.81;;;17.99;67.59
45888;BME280;31595;51.418;7.572;2022-10-22T10:00:24;100096.34;;;18.14;68.28
45888;BME280;31595;51.418;7.572;2022-10-22T10:02:56;100088.97;;;18.29;66.60
45888;BME280;31595;51.418;7.572;2022-10-22T10:05:28;100096.31;;;18.60;66.01
45888;BME280;31595;51.418;7.572;2022-10-22T10:07:56;100094.34;;;18.64;65.29
45888;BME280;31595;51.418;7.572;2022-10-22T10:10:37;100093.69;;;18.71;65.44
45888;BME280;31595;51.418;7.572;2022-10-22T10:13:19;100105.59;;;18.61;65.25
45888;BME280;31595;51.418;7.572;2022-10-22T10:15:54;100104.56;;;18.73;65.58
45888;BME280;31595;51.418;7.572;2022-10-22T10:18:30;100105.59;;;18.61;65.52
45888;BME280;31595;51.418;7.572;2022-10-22T10:21:08;100103.94;;;18.56;65.42
45888;BME280;31595;51.418;7.572;2022-10-22T10:23:49;100095.78;;;18.78;66.28
45888;BME280;31595;51.418;7.572;2022-10-22T10:26:25;100109.75;;;18.44;65.30
45888;BME280;31595;51.418;7.572;2022-10-22T10:29:09;100110.38;;;18.57;66.51
45888;BME280;31595;51.418;7.572;2022-10-22T10:31:47;100105.19;;;18.36;65.37
45888;BME280;31595;51.418;7.572;2022-10-22T10:34:27;100111.25;;;18.61;66.68
45888;BME280;31595;51.418;7.572;2022-10-22T10:37:02;100111.97;;;18.58;67.73
45888;BME280;31595;51.418;7.572;2022-10-22T10:39:41;100120.84;;;18.56;65.79
45888;BME280;31595;51.418;7.572;2022-10-22T10:42:21;100122.47;;;18.57;65.43
45888;BME280;31595;51.418;7.572;2022-10-22T10:45:08;100119.28;;;18.36;64.69
45888;BME280;31595;51.418;7.572;2022-10-22T10:50:43;100119.47;;;18.23;64.45
45888;BME280;31595;51.418;7.572;2022-10-22T10:53:26;100129.09;;;18.22;66.48
45888;BME280;31595;51.418;7.572;2022-10-22T10:56:02;100126.31;;;18.03;65.47
45888;BME280;31595;51.418;7.572;2022-10-22T10:58:38;100132.72;;;18.00;64.38
45888;BME280;31595;51.418;7.572;2022-10-22T11:01:13;100137.25;;;18.04;65.41
45888;BME280;31595;51.418;7.572;2022-10-22T11:03:55;100145.47;;;17.94;63.52
45888;BME280;31595;51.418;7.572;2022-10-22T11:06:25;100141.34;;;17.88;64.03
45888;BME280;31595;51.418;7.572;2022-10-22T11:08:58;100149.78;;;17.88;63.95
45888;BME280;31595;51.418;7.572;2022-10-22T11:11:31;100145.59;;;17.81;64.89
45888;BME280;31595;51.418;7.572;2022-10-22T11:14:08;100148.44;;;17.81;65.25
45888;BME280;31595;51.418;7.572;2022-10-22T11:16:40;100147.50;;;17.93;62.55
45888;BME280;31595;51.418;7.572;2022-10-22T11:19:15;100140.88;;;18.05;63.02
45888;BME280;31595;51.418;7.572;2022-10-22T11:21:51;100129.22;;;18.07;62.82
45888;BME280;31595;51.418;7.572;2022-10-22T11:24:25;100134.53;;;18.12;63.16
45888;BME280;31595;51.418;7.572;2022-10-22T11:27:04;100138.88;;;18.29;62.89
45888;BME280;31595;51.418;7.572;2022-10-22T11:29:40;100129.97;;;18.26;62.30
45888;BME280;31595;51.418;7.572;2022-10-22T11:32:11;100133.13;;;18.21;62.67
45888;BME280;31595;51.418;7.572;2022-10-22T11:34:44;100139.19;;;18.23;61.98
45888;BME280;31595;51.418;7.572;2022-10-22T11:37:13;100135.06;;;18.17;62.52
45888;BME280;31595;51.418;7.572;2022-10-22T11:39:46;100141.88;;;18.16;63.25
45888;BME280;31595;51.418;7.572;2022-10-22T11:42:19;100153.41;;;18.31;62.29
45888;BME280;31595;51.418;7.572;2022-10-22T11:44:49;100144.59;;;18.32;62.25
45888;BME280;31595;51.418;7.572;2022-10-22T11:47:26;100148.41;;;18.43;61.90
45888;BME280;31595;51.418;7.572;2022-10-22T11:49:56;100146.47;;;18.48;61.56
45888;BME280;31595;51.418;7.572;2022-10-22T11:52:39;100149.06;;;18.56;60.83
45888;BME280;31595;51.418;7.572;2022-10-22T11:55:42;100155.25;;;18.65;60.58
45888;BME280;31595;51.418;7.572;2022-10-22T11:58:28;100151.66;;;18.69;60.01
45888;BME280;31595;51.418;7.572;2022-10-22T12:01:16;100160.09;;;18.22;59.74
45888;BME280;31595;51.418;7.572;2022-10-22T12:03:48;100152.59;;;18.30;59.54
45888;BME280;31595;51.418;7.572;2022-10-22T12:06:19;100140.88;;;18.51;59.56
45888;BME280;31595;51.418;7.572;2022-10-22T12:08:52;100143.72;;;18.28;59.34
45888;BME280;31595;51.418;7.572;2022-10-22T12:11:25;100149.72;;;18.26;59.85
45888;BME280;31595;51.418;7.572;2022-10-22T12:14:13;100149.25;;;18.44;58.19
45888;BME280;31595;51.418;7.572;2022-10-22T12:16:47;100141.06;;;18.39;58.53
45888;BME280;31595;51.418;7.572;2022-10-22T12:19:24;100142.47;;;18.25;58.70
45888;BME280;31595;51.418;7.572;2022-10-22T12:21:53;100145.53;;;18.40;59.02
45888;BME280;31595;51.418;7.572;2022-10-22T12:24:23;100156.63;;;18.52;59.48
45888;BME280;31595;51.418;7.572;2022-10-22T12:26:53;100163.97;;;18.34;58.68
45888;BME280;31595;51.418;7.572;2022-10-22T12:29:21;100151.72;;;18.26;59.91
45888;BME280;31595;51.418;7.572;2022-10-22T12:31:50;100167.69;;;18.18;60.31
45888;BME280;31595;51.418;7.572;2022-10-22T12:34:20;100149.66;;;18.23;60.15
45888;BME280;31595;51.418;7.572;2022-10-22T12:36:52;100153.59;;;18.18;60.37
45888;BME280;31595;51.418;7.572;2022-10-22T12:39:20;100151.56;;;17.96;61.44
45888;BME280;31595;51.418;7.572;2022-10-22T12:41:48;100156.16;;;18.04;61.52
45888;BME280;31595;51.418;7.572;2022-10-22T12:44:17;100140.25;;;18.15;61.41
45888;BME280;31595;51.418;7.572;2022-10-22T12:46:47;100142.56;;;18.10;61.20
45888;BME280;31595;51.418;7.572;2022-10-22T12:49:18;100143.88;;;18.16;61.32
45888;BME280;31595;51.418;7.572;2022-10-22T12:51:53;100148.66;;;18.35;60.49
45888;BME280;31595;51.418;7.572;2022-10-22T12:54:23;100141.41;;;18.34;60.80
45888;BME280;31595;51.418;7.572;2022-10-22T12:56:52;100151.28;;;18.47;60.21
45888;BME280;31595;51.418;7.572;2022-10-22T12:59:24;100142.13;;;18.54;59.86
45888;BME280;31595;51.418;7.572;2022-10-22T13:01:53;100136.66;;;18.64;59.88
45888;BME280;31595;51.418;7.572;2022-10-22T13:04:31;100149.47;;;18.81;59.05
45888;BME280;31595;51.418;7.572;2022-10-22T13:07:15;100146.25;;;18.79;58.72
45888;BME280;31595;51.418;7.572;2022-10-22T13:09:44;100142.00;;;18.70;58.85
45888;BME280;31595;51.418;7.572;2022-10-22T13:12:12;100140.94;;;18.78;57.90
45888;BME280;31595;51.418;7.572;2022-10-22T13:14:44;100148.78;;;18.88;58.27
45888;BME280;31595;51.418;7.572;2022-10-22T13:17:14;100149.69;;;18.96;57.36
45888;BME280;31595;51.418;7.572;2022-10-22T13:19:45;100142.97;;;19.04;56.81
45888;BME280;31595;51.418;7.572;2022-10-22T13:22:25;100146.94;;;18.99;57.61